sensor_id;sensor_type;location;lat;lon;timestamp;P1;durP1;ratioP1;P2;durP2;ratioP2
15112;SDS011;7657;50.140;7.076;2023-11-21T00:01:02;0.82;;;0.63;;
15112;SDS011;7657;50.140;7.076;2023-11-21T00:03:29;2.95;;;0.93;;
15112;SDS011;7657;50.140;7.076;2023-11-21T00:05:58;1.58;;;0.70;;
15112;SDS011;7657;50.140;7.076;2023-11-21T00:08:25;0.82;;;0.82;;
15112;SDS011;7657;50.140;7.076;2023-11-21T00:10:52;2.45;;;1.10;;
15112;SDS011;7657;50.140;7.076;2023-11-21T00:13:20;1.67;;;0.80;;
15112;SDS011;7657;50.140;7.076;2023-11-21T00:15:47;0.95;;;0.70;;
15112;SDS011;7657;50.140;7.076;2023-11-21T00:18:14;0.90;;;0.90;;
15112;SDS011;7657;50.140;7.076;2023-11-21T00:20:41;1.27;;;1.17;;
15112;SDS011;7657;50.140;7.076;2023-11-21T00:23:09;1.25;;;1.15;;
15112;SDS011;7657;50.140;7.076;2023-11-21T00:25:36;0.80;;;0.80;;
15112;SDS011;7657;50.140;7.076;2023-11-21T00:28:03;2.13;;;0.90;;
15112;SDS011;7657;50.140;7.076;2023-11-21T00:30:31;0.65;;;0.65;;
15112;SDS011;7657;50.140;7.076;2023-11-21T00:32:58;1.55;;;0.70;;
15112;SDS011;7657;50.140;7.076;2023-11-21T00:35:25;0.75;;;0.70;;
15112;SDS011;7657;50.140;7.076;2023-11-21T00:37:52;1.02;;;0.80;;
15112;SDS011;7657;50.140;7.076;2023-11-21T00:40:20;1.38;;;0.60;;
15112;SDS011;7657;50.140;7.076;2023-11-21T00:42:47;1.55;;;0.45;;
15112;SDS011;7657;50.140;7.076;2023-11-21T00:45:14;0.20;;;0.20;;
15112;SDS011;7657;50.140;7.076;2023-11-21T00:47:41;0.30;;;0.30;;
15112;SDS011;7657;50.140;7.076;2023-11-21T00:50:08;1.02;;;0.20;;
15112;SDS011;7657;50.140;7.076;2023-11-21T00:52:35;0.65;;;0.25;;
15112;SDS011;7657;50.140;7.076;2023-11-21T00:55:02;0.40;;;0.38;;
15112;SDS011;7657;50.140;7.076;2023-11-21T00:57:31;1.23;;;0.70;;
15112;SDS011;7657;50.140;7.076;2023-11-21T00:59:58;1.05;;;0.88;;
15112;SDS011;7657;50.140;7.076;2023-11-21T01:02:25;0.50;;;0.45;;
15112;SDS011;7657;50.140;7.076;2023-11-21T01:04:52;1.85;;;0.50;;
15112;SDS011;7657;50.140;7.076;2023-11-21T01:07:19;0.10;;;0.10;;
15112;SDS011;7657;50.140;7.076;2023-11-21T01:09:47;0.20;;;0.20;;
15112;SDS011;7657;50.140;7.076;2023-11-21T01:12:14;0.10;;;0.10;;
15112;SDS011;7657;50.140;7.076;2023-11-21T01:14:44;0.10;;;0.10;;
15112;SDS011;7657;50.140;7.076;2023-11-21T01:17:11;0.10;;;0.10;;
15112;SDS011;7657;50.140;7.076;2023-11-21T01:19:38;1.58;;;0.20;;
15112;SDS011;7657;50.140;7.076;2023-11-21T01:22:05;0.20;;;0.20;;
15112;SDS011;7657;50.140;7.076;2023-11-21T01:24:32;0.50;;;0.30;;
15112;SDS011;7657;50.140;7.076;2023-11-21T01:26:59;0.45;;;0.20;;
15112;SDS011;7657;50.140;7.076;2023-11-21T01:29:26;0.10;;;0.10;;
15112;SDS011;7657;50.140;7.076;2023-11-21T01:31:54;0.10;;;0.10;;
15112;SDS011;7657;50.140;7.076;2023-11-21T01:34:22;0.15;;;0.15;;
15112;SDS011;7657;50.140;7.076;2023-11-21T01:36:49;0.20;;;0.20;;
15112;SDS011;7657;50.140;7.076;2023-11-21T01:39:16;0.63;;;0.10;;
15112;SDS011;7657;50.140;7.076;2023-11-21T01:41:48;0.52;;;0.20;;
15112;SDS011;7657;50.140;7.076;2023-11-21T01:44:15;0.43;;;0.20;;
15112;SDS011;7657;50.140;7.076;2023-11-21T01:46:44;0.13;;;0.13;;
15112;SDS011;7657;50.140;7.076;2023-11-21T01:49:13;0.22;;;0.17;;
15112;SDS011;7657;50.140;7.076;2023-11-21T01:51:40;0.30;;;0.30;;
15112;SDS011;7657;50.140;7.076;2023-11-21T01:54:08;0.30;;;0.22;;
15112;SDS011;7657;50.140;7.076;2023-11-21T01:56:36;0.10;;;0.03;;
15112;SDS011;7657;50.140;7.076;2023-11-21T01:59:04;0.30;;;0.20;;
15112;SDS011;7657;50.140;7.076;2023-11-21T02:01:32;0.60;;;0.10;;
15112;SDS011;7657;50.140;7.076;2023-11-21T02:03:59;0.17;;;0.10;;
15112;SDS011;7657;50.140;7.076;2023-11-21T02:06:28;0.03;;;0.03;;
15112;SDS011;7657;50.140;7.076;2023-11-21T02:08:56;0.30;;;0.28;;
15112;SDS011;7657;50.140;7.076;2023-11-21T02:11:24;0.30;;;0.20;;
15112;SDS011;7657;50.140;7.076;2023-11-21T02:13:52;1.55;;;0.25;;
15112;SDS011;7657;50.140;7.076;2023-11-21T02:16:20;0.60;;;0.20;;
15112;SDS011;7657;50.140;7.076;2023-11-21T02:18:47;0.73;;;0.20;;
15112;SDS011;7657;50.140;7.076;2023-11-21T02:21:14;0.30;;;0.28;;
15112;SDS011;7657;50.140;7.076;2023-11-21T02:23:43;0.40;;;0.20;;
15112;SDS011;7657;50.140;7.076;2023-11-21T02:26:11;0.45;;;0.45;;
15112;SDS011;7657;50.140;7.076;2023-11-21T02:28:39;0.30;;;0.30;;
15112;SDS011;7657;50.140;7.076;2023-11-21T02:31:06;0.38;;;0.38;;
15112;SDS011;7657;50.140;7.076;2023-11-21T02:33:33;0.80;;;0.40;;
15112;SDS011;7657;50.140;7.076;2023-11-21T02:36:00;0.90;;;0.47;;
15112;SDS011;7657;50.140;7.076;2023-11-21T02:38:26;0.95;;;0.57;;
15112;SDS011;7657;50.140;7.076;2023-11-21T02:40:57;0.40;;;0.40;;
15112;SDS011;7657;50.140;7.076;2023-11-21T02:43:24;1.48;;;0.57;;
15112;SDS011;7657;50.140;7.076;2023-11-21T02:45:51;0.57;;;0.57;;
15112;SDS011;7657;50.140;7.076;2023-11-21T02:48:18;0.45;;;0.45;;
15112;SDS011;7657;50.140;7.076;2023-11-21T02:50:45;1.85;;;0.77;;
15112;SDS011;7657;50.140;7.076;2023-11-21T02:53:12;1.05;;;0.90;;
15112;SDS011;7657;50.140;7.076;2023-11-21T02:55:40;1.05;;;0.95;;
15112;SDS011;7657;50.140;7.076;2023-11-21T02:58:08;2.60;;;1.33;;
15112;SDS011;7657;50.140;7.076;2023-11-21T03:00:35;1.30;;;1.20;;
15112;SDS011;7657;50.140;7.076;2023-11-21T03:03:02;1.48;;;1.38;;
15112;SDS011;7657;50.140;7.076;2023-11-21T03:05:29;1.25;;;1.15;;
15112;SDS011;7657;50.140;7.076;2023-11-21T03:07:56;1.58;;;1.33;;
15112;SDS011;7657;50.140;7.076;2023-11-21T03:10:23;2.67;;;1.70;;
15112;SDS011;7657;50.140;7.076;2023-11-21T03:12:49;1.67;;;1.58;;
15112;SDS011;7657;50.140;7.076;2023-11-21T03:15:18;1.55;;;1.45;;
15112;SDS011;7657;50.140;7.076;2023-11-21T03:17:45;1.85;;;1.13;;
15112;SDS011;7657;50.140;7.076;2023-11-21T03:20:14;1.40;;;1.30;;
15112;SDS011;7657;50.140;7.076;2023-11-21T03:22:41;1.30;;;1.20;;
15112;SDS011;7657;50.140;7.076;2023-11-21T03:25:08;2.20;;;1.50;;
15112;SDS011;7657;50.140;7.076;2023-11-21T03:27:36;2.20;;;1.15;;
15112;SDS011;7657;50.140;7.076;2023-11-21T03:30:05;2.00;;;1.17;;
15112;SDS011;7657;50.140;7.076;2023-11-21T03:32:36;2.30;;;1.38;;
15112;SDS011;7657;50.140;7.076;2023-11-21T03:35:03;2.05;;;1.20;;
15112;SDS011;7657;50.140;7.076;2023-11-21T03:37:31;1.45;;;1.25;;
15112;SDS011;7657;50.140;7.076;2023-11-21T03:39:57;1.45;;;1.30;;
15112;SDS011;7657;50.140;7.076;2023-11-21T03:42:24;2.03;;;1.40;;
15112;SDS011;7657;50.140;7.076;2023-11-21T03:44:51;2.58;;;1.20;;
15112;SDS011;7657;50.140;7.076;2023-11-21T03:47:18;2.13;;;1.10;;
15112;SDS011;7657;50.140;7.076;2023-11-21T03:49:47;1.42;;;1.30;;
15112;SDS011;7657;50.140;7.076;2023-11-21T03:52:14;1.20;;;1.10;;
15112;SDS011;7657;50.140;7.076;2023-11-21T03:54:40;1.63;;;1.13;;
15112;SDS011;7657;50.140;7.076;2023-11-21T03:57:08;1.50;;;1.23;;
15112;SDS011;7657;50.140;7.076;2023-11-21T03:59:35;1.17;;;1.08;;
15112;SDS011;7657;50.140;7.076;2023-11-21T04:02:02;2.92;;;1.10;;
15112;SDS011;7657;50.140;7.076;2023-11-21T04:04:29;1.25;;;1.15;;
15112;SDS011;7657;50.140;7.076;2023-11-21T04:06:57;1.25;;;1.15;;
15112;SDS011;7657;50.140;7.076;2023-11-21T04:09:24;1.17;;;0.98;;
15112;SDS011;7657;50.140;7.076;2023-11-21T04:11:51;0.80;;;0.80;;
15112;SDS011;7657;50.140;7.076;2023-11-21T04:14:18;1.05;;;1.05;;
15112;SDS011;7657;50.140;7.076;2023-11-21T04:16:45;2.33;;;1.27;;
15112;SDS011;7657;50.140;7.076;2023-11-21T04:19:12;2.03;;;1.40;;
15112;SDS011;7657;50.140;7.076;2023-11-21T04:21:40;1.25;;;1.13;;
15112;SDS011;7657;50.140;7.076;2023-11-21T04:24:09;1.00;;;1.00;;
15112;SDS011;7657;50.140;7.076;2023-11-21T04:26:36;2.28;;;1.20;;
15112;SDS011;7657;50.140;7.076;2023-11-21T04:29:03;1.40;;;1.30;;
15112;SDS011;7657;50.140;7.076;2023-11-21T04:31:30;2.75;;;1.15;;
15112;SDS011;7657;50.140;7.076;2023-11-21T04:33:58;1.30;;;1.20;;
15112;SDS011;7657;50.140;7.076;2023-11-21T04:36:24;1.27;;;1.17;;
15112;SDS011;7657;50.140;7.076;2023-11-21T04:38:51;2.47;;;1.40;;
15112;SDS011;7657;50.140;7.076;2023-11-21T04:41:20;1.40;;;1.10;;
15112;SDS011;7657;50.140;7.076;2023-11-21T04:43:46;1.60;;;1.50;;
15112;SDS011;7657;50.140;7.076;2023-11-21T04:46:14;1.17;;;1.08;;
15112;SDS011;7657;50.140;7.076;2023-11-21T04:48:41;1.38;;;1.08;;
15112;SDS011;7657;50.140;7.076;2023-11-21T04:51:08;1.77;;;1.00;;
15112;SDS011;7657;50.140;7.076;2023-11-21T04:53:36;1.27;;;1.17;;
15112;SDS011;7657;50.140;7.076;2023-11-21T04:56:04;2.00;;;1.15;;
15112;SDS011;7657;50.140;7.076;2023-11-21T04:58:33;1.27;;;1.17;;
15112;SDS011;7657;50.140;7.076;2023-11-21T05:01:00;1.67;;;0.88;;
15112;SDS011;7657;50.140;7.076;2023-11-21T05:03:28;1.13;;;1.02;;
15112;SDS011;7657;50.140;7.076;2023-11-21T05:05:55;1.10;;;1.10;;
15112;SDS011;7657;50.140;7.076;2023-11-21T05:08:22;1.48;;;1.20;;
15112;SDS011;7657;50.140;7.076;2023-11-21T05:10:48;1.30;;;1.20;;
15112;SDS011;7657;50.140;7.076;2023-11-21T05:13:17;1.20;;;1.00;;
15112;SDS011;7657;50.140;7.076;2023-11-21T05:15:45;1.05;;;1.00;;
15112;SDS011;7657;50.140;7.076;2023-11-21T05:18:12;1.25;;;1.05;;
15112;SDS011;7657;50.140;7.076;2023-11-21T05:20:39;1.27;;;1.17;;
15112;SDS011;7657;50.140;7.076;2023-11-21T05:23:07;1.60;;;0.98;;
15112;SDS011;7657;50.140;7.076;2023-11-21T05:25:34;2.83;;;2.50;;
15112;SDS011;7657;50.140;7.076;2023-11-21T05:28:01;6.45;;;5.25;;
15112;SDS011;7657;50.140;7.076;2023-11-21T05:30:29;11.75;;;9.60;;
15112;SDS011;7657;50.140;7.076;2023-11-21T05:32:57;6.20;;;5.07;;
15112;SDS011;7657;50.140;7.076;2023-11-21T05:35:24;6.18;;;4.72;;
15112;SDS011;7657;50.140;7.076;2023-11-21T05:37:51;6.13;;;4.88;;
15112;SDS011;7657;50.140;7.076;2023-11-21T05:40:19;3.45;;;3.15;;
15112;SDS011;7657;50.140;7.076;2023-11-21T05:42:47;2.90;;;2.60;;
15112;SDS011;7657;50.140;7.076;2023-11-21T05:45:16;2.50;;;2.30;;
15112;SDS011;7657;50.140;7.076;2023-11-21T05:47:44;2.33;;;2.13;;
15112;SDS011;7657;50.140;7.076;2023-11-21T05:50:14;2.63;;;2.40;;
15112;SDS011;7657;50.140;7.076;2023-11-21T05:52:42;5.00;;;2.85;;
15112;SDS011;7657;50.140;7.076;2023-11-21T05:55:10;4.25;;;2.90;;
15112;SDS011;7657;50.140;7.076;2023-11-21T05:57:38;4.78;;;3.30;;
15112;SDS011;7657;50.140;7.076;2023-11-21T06:00:07;3.47;;;3.00;;
15112;SDS011;7657;50.140;7.076;2023-11-21T06:02:43;3.88;;;3.03;;
15112;SDS011;7657;50.140;7.076;2023-11-21T06:05:10;3.83;;;2.80;;
15112;SDS011;7657;50.140;7.076;2023-11-21T06:07:38;4.55;;;3.10;;
15112;SDS011;7657;50.140;7.076;2023-11-21T06:10:07;3.53;;;2.90;;
15112;SDS011;7657;50.140;7.076;2023-11-21T06:12:34;2.90;;;2.67;;
15112;SDS011;7657;50.140;7.076;2023-11-21T06:15:01;3.08;;;2.72;;
15112;SDS011;7657;50.140;7.076;2023-11-21T06:17:30;3.05;;;2.75;;
15112;SDS011;7657;50.140;7.076;2023-11-21T06:19:57;5.57;;;3.97;;
15112;SDS011;7657;50.140;7.076;2023-11-21T06:22:25;5.57;;;3.95;;
15112;SDS011;7657;50.140;7.076;2023-11-21T06:24:54;4.10;;;3.60;;
15112;SDS011;7657;50.140;7.076;2023-11-21T06:27:21;3.28;;;2.97;;
15112;SDS011;7657;50.140;7.076;2023-11-21T06:29:50;3.40;;;3.03;;
15112;SDS011;7657;50.140;7.076;2023-11-21T06:32:16;3.58;;;3.15;;
15112;SDS011;7657;50.140;7.076;2023-11-21T06:34:45;3.97;;;3.40;;
15112;SDS011;7657;50.140;7.076;2023-11-21T06:37:12;3.47;;;3.10;;
15112;SDS011;7657;50.140;7.076;2023-11-21T06:39:39;3.80;;;3.40;;
15112;SDS011;7657;50.140;7.076;2023-11-21T06:42:07;3.42;;;3.05;;
15112;SDS011;7657;50.140;7.076;2023-11-21T06:44:35;4.82;;;3.38;;
15112;SDS011;7657;50.140;7.076;2023-11-21T06:47:03;5.47;;;3.90;;
15112;SDS011;7657;50.140;7.076;2023-11-21T06:49:30;4.47;;;3.58;;
15112;SDS011;7657;50.140;7.076;2023-11-21T06:51:57;4.93;;;3.63;;
15112;SDS011;7657;50.140;7.076;2023-11-21T06:54:24;5.55;;;4.50;;
15112;SDS011;7657;50.140;7.076;2023-11-21T06:56:51;6.10;;;4.00;;
15112;SDS011;7657;50.140;7.076;2023-11-21T06:59:19;5.47;;;3.90;;
15112;SDS011;7657;50.140;7.076;2023-11-21T07:01:46;6.50;;;3.95;;
15112;SDS011;7657;50.140;7.076;2023-11-21T07:04:14;6.97;;;4.50;;
15112;SDS011;7657;50.140;7.076;2023-11-21T07:06:41;7.35;;;4.53;;
15112;SDS011;7657;50.140;7.076;2023-11-21T07:09:08;7.18;;;5.13;;
15112;SDS011;7657;50.140;7.076;2023-11-21T07:11:36;7.00;;;4.57;;
15112;SDS011;7657;50.140;7.076;2023-11-21T07:14:04;5.80;;;4.25;;
15112;SDS011;7657;50.140;7.076;2023-11-21T07:16:34;7.63;;;5.22;;
15112;SDS011;7657;50.140;7.076;2023-11-21T07:19:02;6.20;;;4.97;;
15112;SDS011;7657;50.140;7.076;2023-11-21T07:21:31;6.70;;;4.80;;
15112;SDS011;7657;50.140;7.076;2023-11-21T07:23:58;7.25;;;4.45;;
15112;SDS011;7657;50.140;7.076;2023-11-21T07:26:25;7.57;;;5.18;;
15112;SDS011;7657;50.140;7.076;2023-11-21T07:28:51;6.15;;;4.72;;
15112;SDS011;7657;50.140;7.076;2023-11-21T07:31:18;6.75;;;4.57;;
15112;SDS011;7657;50.140;7.076;2023-11-21T07:33:47;6.75;;;4.57;;
15112;SDS011;7657;50.140;7.076;2023-11-21T07:36:14;7.00;;;4.90;;
15112;SDS011;7657;50.140;7.076;2023-11-21T07:38:43;5.47;;;4.25;;
15112;SDS011;7657;50.140;7.076;2023-11-21T07:41:10;6.15;;;5.25;;
15112;SDS011;7657;50.140;7.076;2023-11-21T07:43:40;7.25;;;5.72;;
15112;SDS011;7657;50.140;7.076;2023-11-21T07:46:08;9.00;;;6.82;;
15112;SDS011;7657;50.140;7.076;2023-11-21T07:48:34;11.82;;;8.50;;
15112;SDS011;7657;50.140;7.076;2023-11-21T07:51:03;12.43;;;9.55;;
15112;SDS011;7657;50.140;7.076;2023-11-21T07:53:30;24.27;;;19.35;;
15112;SDS011;7657;50.140;7.076;2023-11-21T07:55:57;13.90;;;11.50;;
15112;SDS011;7657;50.140;7.076;2023-11-21T07:58:24;10.38;;;7.60;;
15112;SDS011;7657;50.140;7.076;2023-11-21T08:00:51;13.32;;;9.75;;
15112;SDS011;7657;50.140;7.076;2023-11-21T08:03:18;12.38;;;8.13;;
15112;SDS011;7657;50.140;7.076;2023-11-21T08:05:46;9.10;;;7.40;;
15112;SDS011;7657;50.140;7.076;2023-11-21T08:08:14;10.43;;;8.27;;
15112;SDS011;7657;50.140;7.076;2023-11-21T08:10:43;20.40;;;13.27;;
15112;SDS011;7657;50.140;7.076;2023-11-21T08:13:21;18.38;;;12.60;;
15112;SDS011;7657;50.140;7.076;2023-11-21T08:15:48;18.42;;;13.52;;
15112;SDS011;7657;50.140;7.076;2023-11-21T08:18:15;16.10;;;13.13;;
15112;SDS011;7657;50.140;7.076;2023-11-21T08:20:42;15.90;;;11.00;;
15112;SDS011;7657;50.140;7.076;2023-11-21T08:23:12;10.43;;;8.50;;
15112;SDS011;7657;50.140;7.076;2023-11-21T08:25:42;9.52;;;6.57;;
15112;SDS011;7657;50.140;7.076;2023-11-21T08:28:09;11.77;;;6.75;;
15112;SDS011;7657;50.140;7.076;2023-11-21T08:30:36;9.27;;;6.43;;
15112;SDS011;7657;50.140;7.076;2023-11-21T08:33:04;12.65;;;8.95;;
15112;SDS011;7657;50.140;7.076;2023-11-21T08:35:32;15.07;;;9.82;;
15112;SDS011;7657;50.140;7.076;2023-11-21T08:37:58;37.55;;;25.83;;
15112;SDS011;7657;50.140;7.076;2023-11-21T08:40:27;23.63;;;18.17;;
15112;SDS011;7657;50.140;7.076;2023-11-21T08:42:54;23.80;;;20.08;;
15112;SDS011;7657;50.140;7.076;2023-11-21T08:45:21;11.20;;;8.88;;
15112;SDS011;7657;50.140;7.076;2023-11-21T08:47:48;13.07;;;10.48;;
15112;SDS011;7657;50.140;7.076;2023-11-21T08:50:15;11.82;;;7.72;;
15112;SDS011;7657;50.140;7.076;2023-11-21T08:52:42;9.45;;;6.38;;
15112;SDS011;7657;50.140;7.076;2023-11-21T08:55:11;12.27;;;9.77;;
15112;SDS011;7657;50.140;7.076;2023-11-21T08:57:40;10.68;;;8.73;;
15112;SDS011;7657;50.140;7.076;2023-11-21T09:00:09;12.30;;;8.02;;
15112;SDS011;7657;50.140;7.076;2023-11-21T09:02:37;8.98;;;6.63;;
15112;SDS011;7657;50.140;7.076;2023-11-21T09:05:07;7.20;;;6.18;;
15112;SDS011;7657;50.140;7.076;2023-11-21T09:07:34;9.90;;;6.93;;
15112;SDS011;7657;50.140;7.076;2023-11-21T09:10:01;10.18;;;6.72;;
15112;SDS011;7657;50.140;7.076;2023-11-21T09:12:28;13.93;;;10.32;;
15112;SDS011;7657;50.140;7.076;2023-11-21T09:14:59;23.08;;;15.13;;
15112;SDS011;7657;50.140;7.076;2023-11-21T09:17:25;15.65;;;10.95;;
15112;SDS011;7657;50.140;7.076;2023-11-21T09:19:53;16.90;;;11.88;;
15112;SDS011;7657;50.140;7.076;2023-11-21T09:22:20;18.92;;;14.32;;
15112;SDS011;7657;50.140;7.076;2023-11-21T09:24:46;15.38;;;11.55;;
15112;SDS011;7657;50.140;7.076;2023-11-21T09:27:13;16.80;;;13.95;;
15112;SDS011;7657;50.140;7.076;2023-11-21T09:29:40;13.93;;;9.70;;
15112;SDS011;7657;50.140;7.076;2023-11-21T09:32:09;25.23;;;22.65;;
15112;SDS011;7657;50.140;7.076;2023-11-21T09:34:39;10.82;;;8.45;;
15112;SDS011;7657;50.140;7.076;2023-11-21T09:37:07;12.13;;;7.78;;
15112;SDS011;7657;50.140;7.076;2023-11-21T09:39:34;8.82;;;5.70;;
15112;SDS011;7657;50.140;7.076;2023-11-21T09:42:04;9.48;;;7.20;;
15112;SDS011;7657;50.140;7.076;2023-11-21T09:44:36;6.25;;;5.00;;
15112;SDS011;7657;50.140;7.076;2023-11-21T09:47:14;7.93;;;5.10;;
15112;SDS011;7657;50.140;7.076;2023-11-21T09:49:42;6.03;;;4.85;;
15112;SDS011;7657;50.140;7.076;2023-11-21T09:52:15;9.23;;;5.50;;
15112;SDS011;7657;50.140;7.076;2023-11-21T09:54:48;5.95;;;4.53;;
15112;SDS011;7657;50.140;7.076;2023-11-21T09:57:16;9.50;;;4.78;;
15112;SDS011;7657;50.140;7.076;2023-11-21T09:59:44;7.72;;;5.10;;
15112;SDS011;7657;50.140;7.076;2023-11-21T10:02:14;5.95;;;4.65;;
15112;SDS011;7657;50.140;7.076;2023-11-21T10:04:43;11.70;;;7.05;;
15112;SDS011;7657;50.140;7.076;2023-11-21T10:07:10;6.18;;;4.75;;
15112;SDS011;7657;50.140;7.076;2023-11-21T10:09:40;6.72;;;5.20;;
15112;SDS011;7657;50.140;7.076;2023-11-21T10:12:08;6.75;;;4.90;;
15112;SDS011;7657;50.140;7.076;2023-11-21T10:14:37;7.13;;;5.65;;
15112;SDS011;7657;50.140;7.076;2023-11-21T10:17:09;5.47;;;4.40;;
15112;SDS011;7657;50.140;7.076;2023-11-21T10:19:39;8.40;;;5.10;;
15112;SDS011;7657;50.140;7.076;2023-11-21T10:22:07;6.28;;;4.70;;
15112;SDS011;7657;50.140;7.076;2023-11-21T10:24:34;6.63;;;5.10;;
15112;SDS011;7657;50.140;7.076;2023-11-21T10:27:02;4.57;;;3.65;;
15112;SDS011;7657;50.140;7.076;2023-11-21T10:29:30;4.80;;;3.75;;
15112;SDS011;7657;50.140;7.076;2023-11-21T10:32:01;4.53;;;3.75;;
15112;SDS011;7657;50.140;7.076;2023-11-21T10:34:28;7.03;;;4.28;;
15112;SDS011;7657;50.140;7.076;2023-11-21T10:36:57;5.30;;;4.38;;
15112;SDS011;7657;50.140;7.076;2023-11-21T10:39:24;5.65;;;4.75;;
15112;SDS011;7657;50.140;7.076;2023-11-21T10:41:55;6.45;;;4.00;;
15112;SDS011;7657;50.140;7.076;2023-11-21T10:44:22;6.28;;;4.07;;
15112;SDS011;7657;50.140;7.076;2023-11-21T10:46:51;7.85;;;5.05;;
15112;SDS011;7657;50.140;7.076;2023-11-21T10:49:21;6.25;;;4.80;;
15112;SDS011;7657;50.140;7.076;2023-11-21T10:51:49;6.00;;;4.45;;
15112;SDS011;7657;50.140;7.076;2023-11-21T10:54:22;4.70;;;3.50;;
15112;SDS011;7657;50.140;7.076;2023-11-21T10:56:51;8.40;;;3.95;;
15112;SDS011;7657;50.140;7.076;2023-11-21T10:59:22;7.13;;;4.03;;
15112;SDS011;7657;50.140;7.076;2023-11-21T11:01:50;5.50;;;4.50;;
15112;SDS011;7657;50.140;7.076;2023-11-21T11:04:18;5.50;;;3.30;;
15112;SDS011;7657;50.140;7.076;2023-11-21T11:06:48;6.05;;;4.30;;
15112;SDS011;7657;50.140;7.076;2023-11-21T11:09:21;4.53;;;3.42;;
15112;SDS011;7657;50.140;7.076;2023-11-21T11:11:48;3.88;;;3.30;;
15112;SDS011;7657;50.140;7.076;2023-11-21T11:14:15;4.63;;;3.22;;
15112;SDS011;7657;50.140;7.076;2023-11-21T11:16:44;5.32;;;3.60;;
15112;SDS011;7657;50.140;7.076;2023-11-21T11:19:11;4.32;;;2.60;;
15112;SDS011;7657;50.140;7.076;2023-11-21T11:21:43;5.13;;;3.08;;
15112;SDS011;7657;50.140;7.076;2023-11-21T11:27:30;6.60;;;4.57;;
15112;SDS011;7657;50.140;7.076;2023-11-21T11:30:07;7.03;;;5.22;;
15112;SDS011;7657;50.140;7.076;2023-11-21T11:32:43;7.22;;;4.20;;
15112;SDS011;7657;50.140;7.076;2023-11-21T11:35:23;7.00;;;5.30;;
15112;SDS011;7657;50.140;7.076;2023-11-21T11:37:55;8.48;;;5.18;;
15112;SDS011;7657;50.140;7.076;2023-11-21T11:40:25;20.23;;;15.77;;
15112;SDS011;7657;50.140;7.076;2023-11-21T11:43:05;21.23;;;14.60;;
15112;SDS011;7657;50.140;7.076;2023-11-21T11:45:33;14.18;;;10.15;;
15112;SDS011;7657;50.140;7.076;2023-11-21T11:48:06;24.50;;;18.08;;
15112;SDS011;7657;50.140;7.076;2023-11-21T11:50:33;17.95;;;13.25;;
15112;SDS011;7657;50.140;7.076;2023-11-21T11:53:11;29.15;;;21.38;;
15112;SDS011;7657;50.140;7.076;2023-11-21T11:55:40;32.50;;;23.17;;
15112;SDS011;7657;50.140;7.076;2023-11-21T11:58:07;18.02;;;13.80;;
15112;SDS011;7657;50.140;7.076;2023-11-21T12:00:35;27.27;;;23.17;;
15112;SDS011;7657;50.140;7.076;2023-11-21T12:03:05;7.93;;;6.43;;
15112;SDS011;7657;50.140;7.076;2023-11-21T12:05:34;7.97;;;6.65;;
15112;SDS011;7657;50.140;7.076;2023-11-21T12:08:04;7.68;;;5.40;;
15112;SDS011;7657;50.140;7.076;2023-11-21T12:10:33;16.83;;;11.48;;
15112;SDS011;7657;50.140;7.076;2023-11-21T12:13:02;21.92;;;14.13;;
15112;SDS011;7657;50.140;7.076;2023-11-21T12:15:32;8.63;;;6.65;;
15112;SDS011;7657;50.140;7.076;2023-11-21T12:18:00;6.82;;;5.47;;
15112;SDS011;7657;50.140;7.076;2023-11-21T12:20:27;7.78;;;5.20;;
15112;SDS011;7657;50.140;7.076;2023-11-21T12:22:55;14.68;;;10.43;;
15112;SDS011;7657;50.140;7.076;2023-11-21T12:25:25;17.15;;;12.43;;
15112;SDS011;7657;50.140;7.076;2023-11-21T12:27:54;10.32;;;6.18;;
15112;SDS011;7657;50.140;7.076;2023-11-21T12:30:25;9.15;;;5.78;;
15112;SDS011;7657;50.140;7.076;2023-11-21T12:32:55;7.68;;;4.63;;
15112;SDS011;7657;50.140;7.076;2023-11-21T12:35:24;8.68;;;5.90;;
15112;SDS011;7657;50.140;7.076;2023-11-21T12:37:52;12.55;;;11.25;;
15112;SDS011;7657;50.140;7.076;2023-11-21T12:40:19;7.72;;;6.30;;
15112;SDS011;7657;50.140;7.076;2023-11-21T12:42:48;8.75;;;4.75;;
15112;SDS011;7657;50.140;7.076;2023-11-21T12:45:19;7.28;;;5.35;;
15112;SDS011;7657;50.140;7.076;2023-11-21T12:47:48;5.65;;;4.38;;
15112;SDS011;7657;50.140;7.076;2023-11-21T12:50:18;7.78;;;4.63;;
15112;SDS011;7657;50.140;7.076;2023-11-21T12:52:48;6.82;;;4.32;;
15112;SDS011;7657;50.140;7.076;2023-11-21T12:55:17;5.30;;;4.15;;
15112;SDS011;7657;50.140;7.076;2023-11-21T12:57:47;6.22;;;4.32;;
15112;SDS011;7657;50.140;7.076;2023-11-21T13:00:16;6.40;;;4.95;;
15112;SDS011;7657;50.140;7.076;2023-11-21T13:02:54;7.15;;;5.18;;
15112;SDS011;7657;50.140;7.076;2023-11-21T13:05:23;7.53;;;4.60;;
15112;SDS011;7657;50.140;7.076;2023-11-21T13:07:51;7.53;;;4.45;;
15112;SDS011;7657;50.140;7.076;2023-11-21T13:10:19;5.97;;;4.50;;
15112;SDS011;7657;50.140;7.076;2023-11-21T13:12:50;5.63;;;4.38;;
15112;SDS011;7657;50.140;7.076;2023-11-21T13:15:20;5.32;;;4.28;;
15112;SDS011;7657;50.140;7.076;2023-11-21T13:17:47;9.32;;;5.25;;
15112;SDS011;7657;50.140;7.076;2023-11-21T13:20:16;6.45;;;4.43;;
15112;SDS011;7657;50.140;7.076;2023-11-21T13:22:48;7.53;;;5.22;;
15112;SDS011;7657;50.140;7.076;2023-11-21T13:25:18;8.00;;;4.70;;
15112;SDS011;7657;50.140;7.076;2023-11-21T13:27:46;11.50;;;8.15;;
15112;SDS011;7657;50.140;7.076;2023-11-21T13:30:13;22.30;;;13.10;;
15112;SDS011;7657;50.140;7.076;2023-11-21T13:32:41;46.42;;;27.48;;
15112;SDS011;7657;50.140;7.076;2023-11-21T13:35:09;16.30;;;11.73;;
15112;SDS011;7657;50.140;7.076;2023-11-21T13:37:48;6.72;;;4.95;;
15112;SDS011;7657;50.140;7.076;2023-11-21T13:40:19;5.82;;;5.32;;
15112;SDS011;7657;50.140;7.076;2023-11-21T13:42:51;6.80;;;5.50;;
15112;SDS011;7657;50.140;7.076;2023-11-21T13:45:24;25.95;;;16.95;;
15112;SDS011;7657;50.140;7.076;2023-11-21T13:47:53;9.73;;;6.93;;
15112;SDS011;7657;50.140;7.076;2023-11-21T13:50:23;12.35;;;7.82;;
15112;SDS011;7657;50.140;7.076;2023-11-21T13:52:56;21.20;;;16.25;;
15112;SDS011;7657;50.140;7.076;2023-11-21T13:55:28;9.85;;;8.05;;
15112;SDS011;7657;50.140;7.076;2023-11-21T13:57:55;7.20;;;4.65;;
15112;SDS011;7657;50.140;7.076;2023-11-21T14:00:22;9.10;;;6.18;;
15112;SDS011;7657;50.140;7.076;2023-11-21T14:03:10;7.88;;;4.90;;
15112;SDS011;7657;50.140;7.076;2023-11-21T14:05:44;5.72;;;4.63;;
15112;SDS011;7657;50.140;7.076;2023-11-21T14:08:14;34.70;;;19.80;;
15112;SDS011;7657;50.140;7.076;2023-11-21T14:10:45;55.72;;;25.15;;
15112;SDS011;7657;50.140;7.076;2023-11-21T14:13:15;64.25;;;27.50;;
15112;SDS011;7657;50.140;7.076;2023-11-21T14:15:43;61.35;;;23.65;;
15112;SDS011;7657;50.140;7.076;2023-11-21T14:18:11;127.82;;;44.40;;
15112;SDS011;7657;50.140;7.076;2023-11-21T14:20:42;57.13;;;32.78;;
15112;SDS011;7657;50.140;7.076;2023-11-21T14:23:09;60.65;;;28.92;;
15112;SDS011;7657;50.140;7.076;2023-11-21T14:25:38;56.22;;;28.42;;
15112;SDS011;7657;50.140;7.076;2023-11-21T14:28:07;18.00;;;12.00;;
15112;SDS011;7657;50.140;7.076;2023-11-21T14:30:36;7.82;;;4.97;;
15112;SDS011;7657;50.140;7.076;2023-11-21T14:33:04;7.07;;;5.20;;
15112;SDS011;7657;50.140;7.076;2023-11-21T14:35:33;6.30;;;4.78;;
15112;SDS011;7657;50.140;7.076;2023-11-21T14:38:00;9.00;;;6.07;;
15112;SDS011;7657;50.140;7.076;2023-11-21T14:40:30;6.57;;;4.80;;
15112;SDS011;7657;50.140;7.076;2023-11-21T14:43:00;8.05;;;5.78;;
15112;SDS011;7657;50.140;7.076;2023-11-21T14:45:27;6.93;;;4.82;;
15112;SDS011;7657;50.140;7.076;2023-11-21T14:47:55;7.53;;;5.20;;
15112;SDS011;7657;50.140;7.076;2023-11-21T14:50:31;9.68;;;5.47;;
15112;SDS011;7657;50.140;7.076;2023-11-21T14:53:18;8.43;;;5.35;;
15112;SDS011;7657;50.140;7.076;2023-11-21T14:56:06;6.95;;;4.70;;
15112;SDS011;7657;50.140;7.076;2023-11-21T14:58:34;7.22;;;5.38;;
15112;SDS011;7657;50.140;7.076;2023-11-21T15:01:03;6.32;;;4.75;;
15112;SDS011;7657;50.140;7.076;2023-11-21T15:03:29;8.90;;;4.93;;
15112;SDS011;7657;50.140;7.076;2023-11-21T15:06:15;10.45;;;6.50;;
15112;SDS011;7657;50.140;7.076;2023-11-21T15:08:48;11.52;;;6.50;;